Time;durP1;ratioP1;P1;durP2;ratioP2;P2;SDS_P1;SDS_P2;PMS_P1;PMS_P2;Temp;Humidity;BMP_temperature;BMP_pressure;BME280_temperature;BME280_humidity;BME280_pressure;Samples;Min_cycle;Max_cycle;Signal;HPM_P1;HPM_P2
2021/12/20 00:01:22;;;;;;;7.53;1.83;;;;;;;-0.70;92.63;101929.94;5068179;28;20528;-77
2021/12/20 00:03:47;;;;;;;8.37;2.13;;;;;;;-0.63;92.89;101955.00;5050309;28;20275;-77
2021/12/20 00:06:13;;;;;;;7.85;2.22;;;;;;;-0.57;92.98;101967.88;5050715;28;20143;-77
2021/12/20 00:08:38;;;;;;;5.28;1.52;;;;;;;-0.50;93.29;101986.84;5050360;28;20040;-77
2021/12/20 00:11:04;;;;;;;15.00;2.97;;;;;;;-0.60;93.46;101962.75;5050695;28;20031;-77
2021/12/20 00:13:29;;;;;;;7.28;2.08;;;;;;;-0.62;93.59;101971.59;5050162;28;20036;-77
2021/12/20 00:15:55;;;;;;;7.78;2.17;;;;;;;-0.63;93.63;101976.00;5033515;28;20036;-77
2021/12/20 00:18:21;;;;;;;7.18;1.88;;;;;;;-0.75;93.75;101956.34;5033461;28;20033;-77
2021/12/20 00:20:46;;;;;;;5.07;1.63;;;;;;;-0.65;93.93;101978.66;5068472;28;20450;-74
2021/12/20 00:23:12;;;;;;;7.30;2.85;;;;;;;-0.58;93.74;101992.41;5050162;28;20401;-77
2021/12/20 00:25:37;;;;;;;4.93;1.65;;;;;;;-0.46;93.57;102007.66;5050046;28;20032;-76
2021/12/20 00:28:03;;;;;;;11.27;2.58;;;;;;;-0.26;93.62;102033.13;5049865;28;20121;-77
2021/12/20 00:30:29;;;;;;;3.75;1.65;;;;;;;-0.47;93.11;101982.34;5050130;28;20032;-75
2021/12/20 00:32:54;;;;;;;6.13;1.65;;;;;;;-0.35;93.08;102001.13;5050079;28;20371;-77
2021/12/20 00:35:24;;;;;;;6.97;2.03;;;;;;;-0.38;92.85;101982.88;5033319;28;20390;-77
2021/12/20 00:40:33;;;;;;;4.13;1.80;;;;;;;-0.43;93.00;101983.06;5049661;28;20109;-75
2021/12/20 00:43:01;;;;;;;3.70;1.90;;;;;;;-0.49;92.91;101978.94;5049348;28;20041;-75
2021/12/20 00:45:31;;;;;;;10.00;1.80;;;;;;;-0.59;93.18;101969.69;5049493;28;20378;-75
2021/12/20 00:47:58;;;;;;;5.40;1.52;;;;;;;-0.59;93.33;101981.97;5049580;28;20043;-75
2021/12/20 00:50:24;;;;;;;;;;;;;;;-0.59;93.64;101993.31;5068448;28;20444;-74
2021/12/20 00:52:51;;;;;;;11.60;2.65;;;;;;;-0.73;93.63;101979.88;5067729;28;19912;-75
2021/12/20 00:55:18;;;;;;;7.88;2.00;;;;;;;-0.81;93.78;101980.19;5049593;28;20028;-75
2021/12/20 00:57:46;;;;;;;5.40;2.15;;;;;;;-0.93;94.07;101978.03;5032928;28;20040;-75
2021/12/20 01:00:14;;;;;;;13.02;2.10;;;;;;;-0.81;94.53;102013.44;5067477;28;20090;-75
2021/12/20 01:02:40;;;;;;;6.63;2.42;;;;;;;-0.66;94.88;102049.53;5049769;28;20032;-75
2021/12/20 01:05:06;;;;;;;;;;;;;;;-0.66;94.54;102041.66;5049510;28;20135;-75
2021/12/20 01:07:31;;;;;;;5.97;1.80;;;;;;;-0.71;94.60;102026.09;5032913;28;20050;-75
2021/12/20 01:09:59;;;;;;;3.78;1.45;;;;;;;-0.57;94.90;102050.97;5049457;28;20048;-75
2021/12/20 01:12:30;;;;;;;5.30;2.45;;;;;;;-0.60;94.94;102048.47;5049378;28;20367;-75
2021/12/20 01:14:59;;;;;;;5.15;1.42;;;;;;;-0.67;94.75;102042.59;5032388;28;20036;-74
2021/12/20 01:17:26;;;;;;;7.13;1.70;;;;;;;-0.67;94.61;102039.97;5066946;28;20044;-74
2021/12/20 01:19:51;;;;;;;;;;;;;;;-0.73;94.61;102027.94;5067297;28;20127;-75
2021/12/20 01:22:17;;;;;;;10.75;1.65;;;;;;;-0.78;94.53;102024.63;5032897;28;20074;-75
2021/12/20 01:24:42;;;;;;;5.10;1.98;;;;;;;-0.77;94.82;102021.13;5048868;28;20398;-75
2021/12/20 01:27:08;;;;;;;5.57;2.40;;;;;;;-0.78;95.07;102032.50;5049075;28;20047;-75
2021/12/20 01:29:33;;;;;;;4.22;1.27;;;;;;;-0.61;95.06;102052.00;5049094;28;20063;-75
2021/12/20 01:31:59;;;;;;;6.25;1.77;;;;;;;-0.58;95.07;102058.00;5032419;28;20051;-76
2021/12/20 01:34:24;;;;;;;5.83;1.40;;;;;;;-0.68;94.93;102040.88;5031413;28;20020;-75
2021/12/20 01:36:50;;;;;;;6.93;1.52;;;;;;;-0.83;95.11;102016.09;5048765;28;20124;-75
2021/12/20 01:39:15;;;;;;;3.22;1.85;;;;;;;-0.74;95.01;102043.75;5048875;28;20033;-75
2021/12/20 01:41:42;;;;;;;6.35;1.80;;;;;;;-0.66;95.05;102055.66;5032192;28;20059;-75
2021/12/20 01:44:09;;;;;;;8.00;1.48;;;;;;;-0.68;94.96;102051.38;5066095;28;20156;-75
2021/12/20 01:46:35;;;;;;;4.22;2.05;;;;;;;-0.62;94.85;102048.53;5032022;28;20040;-75
2021/12/20 01:49:03;;;;;;;7.00;1.40;;;;;;;-0.73;94.84;102027.09;5048636;28;20543;-76
2021/12/20 01:51:44;;;;;;;2.63;1.63;;;;;;;-0.66;95.25;102050.41;5047956;28;20931;-75
2021/12/20 01:54:09;;;;;;;2.95;1.40;;;;;;;-0.53;95.06;102071.78;5047365;28;20066;-75
2021/12/20 01:56:38;;;;;;;8.77;2.08;;;;;;;-0.57;94.78;102048.34;5047754;28;20040;-75
2021/12/20 01:59:05;;;;;;;5.85;2.55;;;;;;;-0.67;94.52;102019.00;5048465;28;20429;-75
2021/12/20 02:01:30;;;;;;;7.18;2.17;;;;;;;-0.66;94.66;102007.56;5031953;28;20017;-75
2021/12/20 02:04:00;;;;;;;3.50;1.30;;;;;;;-0.69;94.80;102013.78;5047839;28;20058;-75
2021/12/20 02:06:41;;;;;;;9.68;2.38;;;;;;;-0.52;94.88;102049.00;5048311;28;20295;-75
2021/12/20 02:09:11;;;;;;;2.72;1.42;;;;;;;-0.64;94.64;102017.09;5048190;28;20121;-75
2021/12/20 02:11:38;;;;;;;6.65;1.35;;;;;;;-0.53;94.65;102034.19;5066513;28;20429;-75
2021/12/20 02:14:05;;;;;;;6.38;1.45;;;;;;;-0.56;94.67;102040.44;5031381;28;20138;-76
2021/12/20 02:16:31;;;;;;;6.50;2.65;;;;;;;-0.34;94.42;102056.19;5048195;28;20522;-75
2021/12/20 02:19:00;;;;;;;4.95;1.50;;;;;;;-0.34;94.18;102045.69;5048203;28;20061;-75
2021/12/20 02:21:26;;;;;;;6.10;1.40;;;;;;;-0.35;93.79;102043.09;5048012;28;20041;-75
2021/12/20 02:23:51;;;;;;;5.53;1.47;;;;;;;-0.28;93.39;102045.44;5047679;28;20032;-75
2021/12/20 02:26:19;;;;;;;20.10;2.08;;;;;;;-0.35;93.25;102007.25;5047901;28;20036;-75
2021/12/20 02:28:47;;;;;;;6.20;1.50;;;;;;;-0.30;92.92;102005.28;5047753;28;20383;-75
2021/12/20 02:39:15;;;;;;;11.23;2.22;;;;;;;-0.09;92.27;102024.56;5047440;28;20436;-75
2021/12/20 02:41:41;;;;;;;5.53;1.27;;;;;;;-0.27;92.15;101988.56;5065106;28;20032;-75
2021/12/20 02:44:11;;;;;;;;;;;;;;;-0.22;92.08;102008.44;5047532;28;20050;-75
2021/12/20 02:49:07;;;;;;;6.95;1.58;;;;;;;-0.32;91.62;101975.63;5047245;28;20408;-75
2021/12/20 02:51:34;;;;;;;5.00;1.10;;;;;;;-0.28;91.70;101984.22;5047662;28;20639;-75
2021/12/20 02:54:02;;;;;;;5.10;2.33;;;;;;;-0.34;91.79;101966.09;5047632;28;20037;-75
2021/12/20 02:56:27;;;;;;;5.72;1.30;;;;;;;-0.51;91.86;101958.91;5031004;28;20040;-75
2021/12/20 02:58:53;;;;;;;3.80;1.33;;;;;;;-0.49;92.07;101968.44;5030843;28;20153;-75
2021/12/20 03:01:20;;;;;;;6.50;1.58;;;;;;;-0.57;92.58;101965.25;5030844;28;20100;-75
2021/12/20 03:03:47;;;;;;;4.85;1.45;;;;;;;-0.50;92.59;101995.56;5065316;28;20120;-75
2021/12/20 03:06:20;;;;;;;7.93;2.38;;;;;;;-0.34;92.68;102023.84;5030867;28;20545;-75
2021/12/20 03:08:50;;;;;;;6.47;1.85;;;;;;;-0.30;92.52;101996.56;5047459;28;20486;-75
2021/12/20 03:11:16;;;;;;;3.92;1.05;;;;;;;-0.28;92.56;102000.84;5047082;28;20036;-75
2021/12/20 03:13:44;;;;;;;;;;;;;;;-0.35;92.38;102007.25;5047794;28;20101;-75
2021/12/20 03:16:10;;;;;;;6.03;1.30;;;;;;;-0.42;92.31;101997.91;5047438;28;19920;-75
2021/12/20 03:18:35;;;;;;;3.80;1.20;;;;;;;-0.52;92.26;101981.66;5047038;28;20036;-75
2021/12/20 03:21:01;;;;;;;4.97;1.40;;;;;;;-0.71;92.21;101955.28;5047630;28;20279;-75
2021/12/20 03:23:26;;;;;;;6.93;1.70;;;;;;;-0.57;92.73;101985.38;5047488;28;20036;-75
2021/12/20 03:25:52;;;;;;;6.43;1.63;;;;;;;-0.62;92.78;101988.19;5047163;28;20043;-75
2021/12/20 03:28:17;;;;;;;7.57;1.23;;;;;;;-0.58;93.15;102009.91;5064993;28;20256;-74
2021/12/20 03:30:44;;;;;;;3.75;1.60;;;;;;;-0.52;93.05;102021.00;5030792;28;20033;-75
2021/12/20 03:33:12;;;;;;;8.73;1.85;;;;;;;-0.57;92.85;102006.38;5047784;28;20489;-74
2021/12/20 03:35:37;;;;;;;7.27;1.90;;;;;;;-0.70;93.03;101991.13;5047214;28;20025;-75
2021/12/20 03:38:03;;;;;;;3.03;1.02;;;;;;;-0.64;93.04;101995.25;5030335;28;20282;-75
2021/12/20 03:40:29;;;;;;;2.83;1.20;;;;;;;-0.80;93.05;101984.50;5046986;28;20127;-76
2021/12/20 03:42:55;;;;;;;4.28;1.88;;;;;;;-1.01;93.41;101970.44;5064823;28;20037;-74
2021/12/20 03:45:20;;;;;;;4.15;1.00;;;;;;;-1.03;93.70;101988.03;5046747;28;20120;-75
2021/12/20 03:47:46;;;;;;;6.53;1.27;;;;;;;-1.14;94.00;101995.41;5064624;28;20486;-74
2021/12/20 03:50:13;;;;;;;6.22;1.77;;;;;;;-1.18;94.54;102002.53;5046926;28;20043;-74
2021/12/20 03:52:38;;;;;;;3.22;0.93;;;;;;;-1.32;95.08;102003.03;5046830;28;20032;-75
2021/12/20 03:55:11;;;;;;;8.20;1.92;;;;;;;-1.22;95.43;102040.22;5046922;28;20064;-75
2021/12/20 03:57:37;;;;;;;4.85;1.38;;;;;;;-1.29;95.86;102031.75;5066471;28;20132;-74
2021/12/20 04:00:07;;;;;;;5.47;1.02;;;;;;;-1.35;95.97;102037.22;5034197;28;20115;-75
2021/12/20 04:02:42;;;;;;;9.45;1.65;;;;;;;-1.31;96.63;102057.16;5051462;28;20041;-75
2021/12/20 04:05:08;;;;;;;8.52;1.98;;;;;;;-1.34;97.08;102057.25;5067940;28;20055;-75
2021/12/20 04:07:33;;;;;;;9.00;3.35;;;;;;;-1.38;96.98;102057.41;5033794;28;20028;-75
2021/12/20 04:09:59;;;;;;;3.97;2.30;;;;;;;-1.32;97.58;102092.13;5050439;28;20105;-75
2021/12/20 04:12:24;;;;;;;7.22;2.25;;;;;;;-1.42;97.53;102069.78;5049917;28;20032;-75
2021/12/20 04:14:50;;;;;;;7.38;2.00;;;;;;;-1.46;97.68;102081.25;5051158;28;20067;-76
2021/12/20 04:17:15;;;;;;;11.90;1.40;;;;;;;-1.49;97.76;102078.75;5069508;28;20036;-75
2021/12/20 04:19:41;;;;;;;4.00;1.63;;;;;;;-1.57;97.95;102080.75;5051139;28;20085;-74
2021/12/20 04:22:06;;;;;;;3.10;1.40;;;;;;;-1.65;98.16;102080.19;5051829;28;20162;-75
2021/12/20 04:24:32;;;;;;;5.65;1.33;;;;;;;-1.57;98.38;102096.47;5034873;28;20059;-74
2021/12/20 04:26:58;;;;;;;4.30;1.08;;;;;;;-1.48;98.33;102104.03;5051426;28;20110;-75
2021/12/20 04:29:23;;;;;;;5.72;1.65;;;;;;;-1.44;98.44;102112.66;5052824;28;20431;-74
2021/12/20 04:31:49;;;;;;;5.78;1.55;;;;;;;-1.41;98.05;102117.78;5052502;28;20080;-74
2021/12/20 04:34:15;;;;;;;2.90;1.40;;;;;;;-1.44;98.32;102113.50;5051824;28;20044;-75
2021/12/20 04:36:41;;;;;;;5.40;1.40;;;;;;;-1.35;98.59;102128.91;5035677;28;20037;-75
2021/12/20 04:39:11;;;;;;;7.68;1.63;;;;;;;-1.36;98.35;102124.59;5070071;28;20036;-74
2021/12/20 04:41:37;;;;;;;5.95;2.00;;;;;;;-1.40;98.15;102111.66;5052342;28;20040;-75
2021/12/20 04:44:03;;;;;;;9.23;1.50;;;;;;;-1.33;98.44;102114.00;5035043;28;20036;-75
2021/12/20 04:46:28;;;;;;;6.15;1.70;;;;;;;-1.39;98.21;102111.56;5051701;28;20028;-77
2021/12/20 04:48:53;;;;;;;6.45;2.10;;;;;;;-1.45;98.18;102082.09;5052192;28;20436;-76
2021/12/20 04:51:19;;;;;;;3.13;1.43;;;;;;;-1.47;98.11;102095.28;5052413;28;20121;-76
2021/12/20 04:53:44;;;;;;;20.13;2.13;;;;;;;-1.59;98.26;102069.47;5035573;28;20293;-75
2021/12/20 04:56:09;;;;;;;7.27;1.30;;;;;;;-1.52;98.80;102095.44;5052203;28;20036;-75
2021/12/20 04:58:35;;;;;;;4.95;1.67;;;;;;;-1.50;98.71;102105.84;5069865;28;20036;-75
2021/12/20 05:01:00;;;;;;;2.95;1.02;;;;;;;-1.33;98.81;102118.38;5035219;28;20122;-75
2021/12/20 05:03:26;;;;;;;7.40;2.45;;;;;;;-1.42;98.89;102105.59;5052222;28;20032;-75
2021/12/20 05:05:51;;;;;;;6.03;1.63;;;;;;;-1.50;99.06;102097.97;5051755;28;20043;-75
2021/12/20 05:08:17;;;;;;;10.35;2.53;;;;;;;-1.46;99.07;102110.06;5034603;28;20143;-75
2021/12/20 05:10:43;;;;;;;3.97;1.38;;;;;;;-1.28;99.23;102122.56;5035176;28;20033;-75
2021/12/20 05:13:10;;;;;;;5.18;1.60;;;;;;;-1.27;99.11;102132.09;5069747;28;20043;-76
2021/12/20 05:15:37;;;;;;;4.22;1.30;;;;;;;-1.22;99.40;102129.34;5069545;28;20105;-75
2021/12/20 05:18:05;;;;;;;4.53;1.98;;;;;;;-1.14;99.25;102142.19;5069344;28;20561;-75
2021/12/20 05:20:31;;;;;;;3.90;1.40;;;;;;;-1.10;99.25;102149.03;5069564;28;20115;-75
2021/12/20 05:22:57;;;;;;;5.57;1.25;;;;;;;-1.07;99.02;102146.31;5069540;28;20046;-75
2021/12/20 05:25:24;;;;;;;7.82;1.60;;;;;;;-0.97;98.92;102160.81;5049748;28;20517;-75
2021/12/20 05:27:50;;;;;;;5.72;1.60;;;;;;;-1.07;98.55;102138.44;5050920;28;20024;-75
2021/12/20 05:30:16;;;;;;;5.50;1.98;;;;;;;-0.98;98.45;102148.63;5051707;28;20036;-75
2021/12/20 05:32:43;;;;;;;5.97;1.48;;;;;;;-1.11;98.15;102128.97;5035119;28;20036;-75
2021/12/20 05:35:09;;;;;;;2.40;1.13;;;;;;;-0.93;98.06;102159.78;5050528;28;20036;-77
2021/12/20 05:37:36;;;;;;;3.55;0.80;;;;;;;-0.95;97.79;102145.88;5034547;28;20032;-76
2021/12/20 05:40:02;;;;;;;3.25;1.33;;;;;;;-0.95;97.65;102132.78;5051184;28;20035;-76
2021/12/20 05:42:27;;;;;;;9.32;2.33;;;;;;;-1.09;97.33;102114.06;5033024;28;20037;-75
2021/12/20 05:44:54;;;;;;;6.70;2.08;;;;;;;-1.01;97.70;102138.22;5051409;28;20490;-76
2021/12/20 05:47:22;;;;;;;6.43;1.45;;;;;;;-1.10;97.55;102126.31;5033463;28;20129;-75
2021/12/20 05:49:48;;;;;;;7.95;1.40;;;;;;;-0.97;97.54;102150.31;5048662;28;20524;-75
2021/12/20 05:52:13;;;;;;;6.60;1.60;;;;;;;-0.85;97.64;102170.84;5048947;28;20040;-77
2021/12/20 05:54:39;;;;;;;7.90;2.80;;;;;;;-0.89;97.72;102160.53;5048466;28;20035;-75
2021/12/20 05:57:04;;;;;;;4.28;1.08;;;;;;;-1.06;97.49;102132.28;5031979;28;20315;-74
2021/12/20 05:59:30;;;;;;;9.32;2.92;;;;;;;-1.09;97.56;102135.03;5031869;28;20029;-75
2021/12/20 06:01:55;;;;;;;7.82;1.65;;;;;;;-1.04;97.66;102140.09;5066329;28;20090;-76
2021/12/20 06:04:21;;;;;;;9.70;2.33;;;;;;;-1.13;97.70;102134.25;5048243;28;20085;-76
2021/12/20 06:06:46;;;;;;;5.50;1.53;;;;;;;-1.03;97.94;102150.53;5048641;28;20490;-75
2021/12/20 06:09:12;;;;;;;6.22;1.48;;;;;;;-1.12;97.77;102137.75;5048300;28;20600;-76
2021/12/20 06:11:37;;;;;;;3.17;1.65;;;;;;;-1.18;97.89;102135.34;5048535;28;20042;-76
2021/12/20 06:14:03;;;;;;;6.33;1.20;;;;;;;-0.95;98.27;102169.47;5032671;28;20053;-75
2021/12/20 06:16:28;;;;;;;9.40;2.00;;;;;;;-0.95;98.33;102184.34;5049544;28;20358;-76
2021/12/20 06:18:54;;;;;;;10.98;3.40;;;;;;;-0.81;98.98;102202.22;5050473;28;20036;-76
2021/12/20 06:21:20;;;;;;;5.95;2.53;;;;;;;-0.79;98.53;102196.03;5050709;28;20067;-75
2021/12/20 06:23:46;;;;;;;5.43;2.15;;;;;;;-0.65;98.46;102213.91;5049491;28;20254;-76
2021/12/20 06:26:12;;;;;;;;;;;;;;;-0.72;98.41;102194.91;5048680;28;20032;-76
2021/12/20 06:28:37;;;;;;;5.95;1.65;;;;;;;-0.79;98.48;102187.31;5048047;28;20435;-75
2021/12/20 06:31:02;;;;;;;6.22;2.15;;;;;;;-0.97;98.18;102162.56;5031618;28;20660;-76
2021/12/20 06:33:28;;;;;;;3.17;1.60;;;;;;;-0.95;98.52;102173.88;5032645;28;20066;-76
2021/12/20 06:35:54;;;;;;;10.15;2.15;;;;;;;-0.83;98.83;102204.06;5068096;28;20024;-76
2021/12/20 06:38:21;;;;;;;9.23;2.63;;;;;;;-0.24;100.00;102272.75;5032823;28;20512;-74
2021/12/20 06:40:48;;;;;;;5.05;1.70;;;;;;;-0.11;100.00;102251.31;5047908;28;20065;-76
2021/12/20 06:43:14;;;;;;;13.75;2.67;;;;;;;-0.31;100.00;102224.00;5033486;28;20396;-76
2021/12/20 06:45:40;;;;;;;12.75;1.42;;;;;;;-0.36;99.77;102220.72;5050201;28;20036;-75
2021/12/20 06:48:05;;;;;;;5.60;1.20;;;;;;;-0.49;99.36;102198.47;5034020;28;20032;-75
2021/12/20 06:50:31;;;;;;;8.23;1.98;;;;;;;-0.53;99.05;102187.22;5050888;28;20055;-76
2021/12/20 06:52:57;;;;;;;7.22;1.48;;;;;;;-0.71;98.72;102172.13;5033538;28;20475;-76
2021/12/20 06:55:23;;;;;;;4.65;1.13;;;;;;;-0.92;98.64;102144.91;5049903;28;20024;-76
2021/12/20 06:57:48;;;;;;;3.25;1.15;;;;;;;-0.78;98.69;102171.50;5049253;28;20052;-77
2021/12/20 07:00:15;;;;;;;11.15;2.10;;;;;;;-0.78;98.91;102171.50;5033508;28;20078;-75
2021/12/20 07:02:43;;;;;;;4.50;1.70;;;;;;;-0.90;98.97;102154.44;5033560;28;20031;-75
2021/12/20 07:05:09;;;;;;;7.30;1.50;;;;;;;-0.96;99.15;102159.91;5049961;28;20036;-77
2021/12/20 07:07:35;;;;;;;6.32;1.58;;;;;;;-0.98;99.22;102173.97;5033387;28;20028;-75
2021/12/20 07:10:03;;;;;;;9.95;2.17;;;;;;;-0.82;99.80;102221.47;5067680;28;20439;-75
2021/12/20 07:12:29;;;;;;;5.63;1.40;;;;;;;-0.83;100.00;102211.91;5033463;28;20029;-77
2021/12/20 07:14:59;;;;;;;;;;;;;;;-0.80;100.00;102211.81;5050435;28;20407;-75
2021/12/20 07:17:25;;;;;;;7.72;1.50;;;;;;;-0.82;100.00;102216.25;5048866;28;19913;-76
2021/12/20 07:19:50;;;;;;;5.97;1.48;;;;;;;-0.94;100.00;102204.41;5049547;28;20155;-75
2021/12/20 07:22:16;;;;;;;11.23;1.25;;;;;;;-0.70;100.00;102257.81;5049864;28;20039;-75
2021/12/20 07:24:42;;;;;;;6.53;1.65;;;;;;;-0.88;100.00;102218.16;5033817;28;20116;-74
2021/12/20 07:27:10;;;;;;;7.83;2.37;;;;;;;-0.87;100.00;102235.63;5050089;28;20569;-77
2021/12/20 07:29:36;;;;;;;6.93;1.42;;;;;;;-0.90;100.00;102233.09;5049609;28;20040;-76
2021/12/20 07:32:02;;;;;;;6.72;1.42;;;;;;;-0.94;100.00;102241.13;5068081;28;20028;-76
2021/12/20 07:34:27;;;;;;;7.20;1.75;;;;;;;-1.01;100.00;102227.34;5071431;28;20486;-74
2021/12/20 07:36:53;;;;;;;10.33;1.77;;;;;;;-0.85;100.00;102264.41;5036936;28;20030;-75
2021/12/20 07:39:19;;;;;;;6.03;1.75;;;;;;;-1.03;100.00;102234.44;5054099;28;20046;-76
2021/12/20 07:41:45;;;;;;;9.17;2.73;;;;;;;-0.94;100.00;102260.31;5053531;28;20032;-76
2021/12/20 07:44:13;;;;;;;5.28;1.40;;;;;;;-0.97;100.00;102256.97;5051635;28;20162;-76
2021/12/20 07:46:38;;;;;;;9.30;1.90;;;;;;;-0.90;100.00;102261.94;5070968;28;20111;-76
2021/12/20 07:49:04;;;;;;;5.63;1.38;;;;;;;-0.91;100.00;102262.84;5036645;28;20033;-76
2021/12/20 07:51:29;;;;;;;12.35;1.98;;;;;;;-0.87;100.00;102269.72;5036909;28;20128;-75
2021/12/20 07:53:55;;;;;;;11.67;2.10;;;;;;;-0.92;100.00;102258.50;5036560;28;20052;-75
2021/12/20 07:56:20;;;;;;;6.68;1.80;;;;;;;-0.90;100.00;102272.44;5036704;28;20024;-75
2021/12/20 07:58:46;;;;;;;6.03;1.50;;;;;;;-0.80;100.00;102295.72;5052781;28;20055;-74
2021/12/20 08:01:31;;;;;;;10.95;1.95;;;;;;;-0.81;100.00;102294.88;5071094;28;20266;-75
2021/12/20 08:03:57;;;;;;;8.52;1.88;;;;;;;-0.79;100.00;102305.31;5052907;28;20444;-75
2021/12/20 08:06:22;;;;;;;5.27;1.30;;;;;;;-0.88;100.00;102291.59;5052891;28;20024;-74
2021/12/20 08:09:06;;;;;;;5.40;1.98;;;;;;;-0.81;100.00;102307.13;5055991;28;20100;-76
2021/12/20 08:11:32;;;;;;;5.03;1.37;;;;;;;-0.78;100.00;102300.00;5052831;28;20037;-75
2021/12/20 08:13:58;;;;;;;3.40;1.00;;;;;;;-0.68;100.00;102308.41;5036570;28;20275;-75
2021/12/20 08:16:23;;;;;;;7.13;1.27;;;;;;;-0.58;100.00;102311.59;5051854;28;20123;-77
2021/12/20 08:18:48;;;;;;;4.93;2.80;;;;;;;-0.59;100.00;102299.38;5051899;28;20083;-75
2021/12/20 08:21:15;;;;;;;5.43;1.80;;;;;;;-0.52;100.00;102304.34;5036346;28;20382;-76
2021/12/20 08:23:43;;;;;;;6.80;1.90;;;;;;;-0.47;100.00;102299.84;5052428;28;20036;-75
2021/12/20 08:26:10;;;;;;;5.90;1.58;;;;;;;-0.44;100.00;102288.38;5053015;28;20924;-76
2021/12/20 08:28:38;;;;;;;7.65;1.83;;;;;;;-0.43;100.00;102293.53;5052947;28;20879;-75
2021/12/20 08:31:04;;;;;;;4.47;1.73;;;;;;;-0.34;100.00;102309.91;5035925;28;20031;-77
2021/12/20 08:33:32;;;;;;;5.03;1.65;;;;;;;-0.30;100.00;102311.50;5052552;28;20052;-75
2021/12/20 08:36:06;;;;;;;11.90;2.17;;;;;;;-0.24;100.00;102316.53;5052335;28;20101;-75
2021/12/20 08:38:32;;;;;;;5.13;1.23;;;;;;;-0.05;100.00;102335.97;5070026;28;20097;-76
2021/12/20 08:40:57;;;;;;;7.30;2.23;;;;;;;0.65;100.00;102363.16;5052567;28;20836;-75
2021/12/20 08:43:23;;;;;;;5.35;1.30;;;;;;;1.81;100.00;102383.03;5035286;28;20150;-75
2021/12/20 08:45:50;;;;;;;8.05;2.50;;;;;;;2.87;99.89;102384.38;5069989;28;20060;-75
2021/12/20 08:48:15;;;;;;;7.50;1.20;;;;;;;3.49;96.37;102352.34;5069851;28;20037;-75
2021/12/20 08:50:41;;;;;;;6.88;1.65;;;;;;;4.24;92.97;102298.25;5034164;28;20031;-75
2021/12/20 08:53:10;;;;;;;6.00;2.05;;;;;;;4.84;88.72;102236.66;5035750;28;20493;-75
2021/12/20 08:55:36;;;;;;;8.07;3.38;;;;;;;5.51;83.88;102157.66;5031793;28;20467;-75
2021/12/20 08:58:02;;;;;;;;;;;;;;;6.12;79.99;102062.78;5049052;28;20041;-75
2021/12/20 09:00:28;;;;;;;;;;;;;;;6.54;75.82;101952.09;5052329;28;19938;-75
2021/12/20 09:02:55;;;;;;;7.05;1.70;;;;;;;6.96;72.88;101886.28;5051948;28;19912;-75
2021/12/20 09:05:22;;;;;;;3.92;1.50;;;;;;;6.52;71.09;101753.19;5051450;28;20036;-76
2021/12/20 09:07:47;;;;;;;6.18;1.52;;;;;;;6.99;70.06;101822.34;5051461;28;20103;-75
2021/12/20 09:10:14;;;;;;;8.05;1.63;;;;;;;7.04;68.07;101716.63;5034917;28;21129;-77
2021/12/20 09:12:41;;;;;;;8.73;1.55;;;;;;;7.09;67.50;101698.53;5051699;28;20266;-75
2021/12/20 09:15:08;;;;;;;8.93;1.67;;;;;;;7.29;67.25;101736.03;5051023;28;20036;-75
2021/12/20 09:17:33;;;;;;;5.63;2.08;;;;;;;7.58;66.51;101736.44;5034619;28;20030;-77
2021/12/20 09:19:59;;;;;;;3.50;1.50;;;;;;;7.36;66.15;101687.63;5035126;28;20123;-76
2021/12/20 09:22:27;;;;;;;5.72;1.58;;;;;;;7.98;65.10;101763.44;5051636;28;20054;-75
2021/12/20 09:24:54;;;;;;;4.43;1.25;;;;;;;8.59;63.90;101746.19;5051001;28;20020;-76
2021/12/20 09:27:21;;;;;;;7.10;1.88;;;;;;;8.25;62.96;101637.16;5051464;28;20064;-74
2021/12/20 09:29:46;;;;;;;6.28;1.60;;;;;;;8.12;63.04;101631.97;5051345;28;20036;-75
2021/12/20 09:32:12;;;;;;;8.93;2.72;;;;;;;8.70;63.05;101721.38;5051196;28;20123;-75
2021/12/20 09:34:38;;;;;;;9.13;1.45;;;;;;;8.86;61.70;101640.06;5050891;28;20044;-77
2021/12/20 09:37:07;;;;;;;2.60;1.10;;;;;;;9.23;60.73;101634.28;5051344;28;20028;-76
2021/12/20 09:39:36;;;;;;;2.67;1.67;;;;;;;8.71;60.17;101510.94;5050723;28;20048;-75
2021/12/20 09:42:03;;;;;;;6.13;1.52;;;;;;;8.63;61.32;101587.91;5050866;28;20028;-75
2021/12/20 09:44:29;;;;;;;;;;;;;;;9.43;60.96;101691.19;5068923;28;20036;-75
2021/12/20 09:46:55;;;;;;;;;;;;;;;9.49;59.73;101592.03;5069055;28;19939;-75
2021/12/20 09:49:20;;;;;;;;;;;;;;;9.90;58.81;101574.19;5051662;28;20015;-75
2021/12/20 09:51:47;;;;;;;3.58;1.38;;;;;;;10.13;58.22;101582.75;5069242;28;20016;-76
2021/12/20 09:54:14;;;;;;;3.22;1.55;;;;;;;9.35;58.22;101429.84;5034264;28;20490;-76
2021/12/20 09:56:41;;;;;;;5.13;2.00;;;;;;;9.66;58.44;101515.03;5051330;28;20071;-76
2021/12/20 09:59:12;;;;;;;6.05;2.10;;;;;;;9.31;59.06;101516.34;5029045;28;20033;-76
2021/12/20 10:01:39;;;;;;;8.95;1.73;;;;;;;9.00;60.66;101571.47;5049642;28;20036;-75
2021/12/20 10:04:04;;;;;;;5.35;2.22;;;;;;;8.86;60.74;101554.84;5030494;28;20116;-76
2021/12/20 10:06:30;;;;;;;5.50;1.30;;;;;;;9.11;60.83;101605.16;5043705;28;20033;-77
2021/12/20 10:09:03;;;;;;;7.22;1.65;;;;;;;9.25;60.37;101579.03;5028192;28;20375;-75
2021/12/20 10:11:29;;;;;;;6.85;1.70;;;;;;;9.04;60.69;101554.25;5028457;28;20037;-77
2021/12/20 10:14:09;;;;;;;6.85;1.30;;;;;;;9.39;59.94;101579.63;5048073;28;20386;-75
2021/12/20 10:16:37;;;;;;;6.80;1.33;;;;;;;9.61;58.75;101515.47;5031185;28;20509;-75
2021/12/20 10:19:05;;;;;;;7.55;2.28;;;;;;;9.64;58.94;101527.66;5031032;28;20082;-76
2021/12/20 10:21:36;;;;;;;5.90;1.45;;;;;;;9.84;59.34;101589.91;5031096;28;20040;-76
2021/12/20 10:24:02;;;;;;;4.18;1.38;;;;;;;9.25;59.74;101477.78;5030938;28;20041;-76
2021/12/20 10:26:28;;;;;;;5.93;1.27;;;;;;;9.15;60.01;101503.53;5030370;28;20048;-77
2021/12/20 10:28:53;;;;;;;5.87;1.90;;;;;;;9.19;60.39;101542.25;5048926;23;20047;-76
2021/12/20 10:31:24;;;;;;;9.45;1.73;;;;;;;9.46;59.87;101548.81;5049490;28;20108;-76
2021/12/20 10:34:08;;;;;;;3.85;1.52;;;;;;;8.79;61.24;101553.69;5026770;28;20045;-75
2021/12/20 10:36:33;;;;;;;4.80;1.48;;;;;;;9.07;60.39;101520.19;5028281;28;20143;-77
2021/12/20 10:39:01;;;;;;;5.70;1.98;;;;;;;9.21;60.46;101524.31;5008238;28;20171;-77
2021/12/20 10:41:37;;;;;;;4.95;1.52;;;;;;;8.84;61.50;101563.94;5008352;28;20041;-75
2021/12/20 10:44:13;;;;;;;;;;;;;;;9.06;61.13;101557.63;5008103;28;20249;-76
2021/12/20 10:46:46;;;;;;;7.95;2.30;;;;;;;8.81;61.24;101517.13;4991721;28;19928;-76
2021/12/20 10:49:14;;;;;;;4.75;1.40;;;;;;;8.89;62.23;101630.97;5007692;28;20041;-76
2021/12/20 10:51:42;;;;;;;5.30;1.42;;;;;;;8.72;62.25;101565.84;4991692;28;20052;-76
2021/12/20 10:54:11;;;;;;;2.72;1.30;;;;;;;8.56;63.84;101701.19;4991057;28;20033;-75
2021/12/20 10:56:40;;;;;;;4.00;1.58;;;;;;;8.51;64.24;101722.88;5024175;28;20088;-76
2021/12/20 10:59:09;;;;;;;5.80;1.60;;;;;;;8.92;63.63;101725.75;5013756;28;20125;-75
2021/12/20 11:04:25;;;;;;;4.20;1.40;;;;;;;9.64;61.56;101693.81;5045013;28;20043;-76
2021/12/20 11:09:04;;;;;;;7.28;1.45;;;;;;;8.55;62.27;101521.19;5029359;28;20060;-75
2021/12/20 11:09:46;;;;;;;2.40;1.00;;;;;;;9.22;62.14;101667.22;5048512;28;20047;-76
2021/12/20 11:12:19;;;;;;;7.10;1.77;;;;;;;9.33;61.58;101607.69;5050564;28;20036;-76
2021/12/20 11:14:48;;;;;;;8.18;2.05;;;;;;;9.43;61.09;101583.72;5032305;28;20044;-76
2021/12/20 11:17:16;;;;;;;4.57;1.40;;;;;;;9.69;61.33;101654.28;5032549;28;20186;-76
2021/12/20 11:19:47;;;;;;;11.30;1.67;;;;;;;9.80;61.32;101660.47;5049026;28;20040;-77
2021/12/20 11:22:14;;;;;;;10.85;2.08;;;;;;;9.30;61.97;101613.28;5050450;28;20033;-76
2021/12/20 11:24:49;;;;;;;4.07;1.45;;;;;;;9.06;61.96;101557.63;5048915;28;20044;-77
2021/12/20 11:27:18;;;;;;;8.30;2.10;;;;;;;8.83;63.07;101616.38;5032064;28;20029;-76
2021/12/20 11:29:46;;;;;;;5.07;1.90;;;;;;;8.54;64.27;101674.69;5031873;28;20760;-76
2021/12/20 11:32:12;;;;;;;5.85;1.35;;;;;;;8.17;64.81;101620.97;5015946;28;20029;-77
2021/12/20 11:34:41;;;;;;;3.95;1.15;;;;;;;8.00;65.47;101663.06;5049187;28;21015;-74
2021/12/20 11:37:09;;;;;;;4.43;1.40;;;;;;;7.75;66.08;101650.03;5032274;28;20032;-76
2021/12/20 11:39:36;;;;;;;5.10;1.23;;;;;;;8.54;66.45;101828.25;5032407;28;20044;-76
2021/12/20 11:42:02;;;;;;;11.05;1.67;;;;;;;9.17;63.83;101736.03;5015653;28;20041;-76
2021/12/20 11:44:29;;;;;;;6.20;1.73;;;;;;;8.96;63.52;101664.09;5031866;28;20021;-76